All Spectrum Aviation - Van Nuys Airport - KVNY

HOME

Condor Squadron KVNY Webcam

Visit our Electronics Store

Condor Squadron Webcam - Van Nuys Airport - KVNY
Picture taken: Tue, 11 Dec 2018 17:25:59 -0800
YouTube Channel!    Latest Timelapse Movie    Full Size Image    Regular Size Image    

2018/12/14 00:51 KVNY 140051Z 36009KT 10SM CLR 20/M01 A3017 RMK AO2 SLP212 T02001006

HOME

Condor Squadron KVNY Webcam

Visit our Electronics Store